ADDS METAR Data INFO
IDs: Format: Raw Decoded Include TAF

Data at: 1154 UTC 21 Jun 2018

KIGM 211151Z AUTO 11007KT 10SM CLR 22/M04 A3001 RMK AO2 SLP080 T02171039 10289 20206 53008
KIGM 211051Z AUTO 13010KT 10SM CLR 22/M03 A2999 RMK AO2 SLP074 T02221033
KIGM 210951Z AUTO 00000KT 10SM CLR 24/M03 A2998 RMK AO2 SLP070 T02441033
KIGM 210851Z AUTO 01003KT 10SM CLR 24/M03 A2998 RMK AO2 SLP070 T02391033 55001
KIGM 210751Z AUTO 20013KT 10SM CLR 28/M02 A2998 RMK AO2 SLP067 T02831022
KIGM 210651Z AUTO 20011KT 10SM CLR 28/M03 A2998 RMK AO2 SLP067 T02831033 404060156
KIGM 210551Z AUTO 22007KT 10SM CLR 26/M07 A2998 RMK AO2 SLP071 T02611067 10406 20261 51008
KIGM 210451Z AUTO 20010KT 10SM CLR 29/M06 A2998 RMK AO2 SLP070 T02891061
KIGM 210351Z AUTO 20007KT 10SM CLR 29/M06 A2997 RMK AO2 SLP068 T02941061
KIGM 210251Z AUTO 28008KT 10SM CLR 34/M05 A2996 RMK AO2 SLP063 T03441050 53004
KIGM 210151Z AUTO 34008KT 10SM CLR 38/M02 A2995 RMK AO2 SLP058 T03781022
KIGM 210051Z AUTO VRB05KT 10SM CLR 39/M02 A2994 RMK AO2 SLP061 T03891022
KIGM 202351Z AUTO 34006KT 10SM CLR 39/M03 A2994 RMK AO2 SLP063 T03941028 10406 20350 56015
KIGM 202251Z AUTO VRB04KT 10SM CLR 39/M03 A2996 RMK AO2 SLP064 T03941028 $
KIGM 202151Z AUTO 10SM CLR 39/M03 A2997 RMK AO2 SLP069 T03941033 $
KIGM 202051Z AUTO 35006KT 10SM CLR 38/M04 A2999 RMK AO2 SLP077 T03831044 56014 $
KIGM 201951Z AUTO 29005KT 10SM CLR 37/M04 A3001 RMK AO2 SLP081 T03721039 $
KIGM 201851Z AUTO 33008KT 10SM CLR 37/M03 A3002 RMK AO2 SLP085 T03671028 $
KIGM 201751Z AUTO 10SM CLR 36/M02 A3004 RMK AO2 SLP093 T03561022 10356 20156 58002 $
KIGM 201651Z AUTO 36006KT 10SM CLR 34/M04 A3005 RMK AO2 SLP099 T03391039 $
KIGM 201551Z AUTO 31/M04 A3005 RMK AO2 SLP096 T03061044 PWINO $
KIGM 201451Z AUTO 26/M05 A3005 RMK AO2 SLP097 T02611050 51013 PWINO
KIGM 201351Z AUTO 00000KT 10SM CLR 24/M06 A3003 RMK AO2 SLP091 T02441056 $
KIGM 201251Z AUTO 00000KT 10SM CLR 17/M08 A3002 RMK AO2 SLP094 T01721083 $
KIGM 201151Z AUTO 00000KT 10SM CLR 17/M09 A3000 RMK AO2 SLP088 T01671089 10250 20167 53006 $
KIGM 201051Z AUTO 16004KT 10SM CLR 21/M08 A2999 RMK AO2 SLP081 T02061078 $
KIGM 200951Z AUTO 05004KT 10SM CLR 22/M08 A2999 RMK AO2 SLP078 T02171083 $
KIGM 200851Z AUTO 00000KT 10SM CLR 21/M08 A2998 RMK AO2 SLP078 T02061083 58002 $
KIGM 200751Z AUTO 24003KT 10SM CLR 23/M08 A2999 RMK AO2 SLP079 T02281078 $
KIGM 200651Z AUTO 00000KT 10SM CLR 24/M08 A2999 RMK AO2 SLP078 T02391078 403610133 $
KIGM 200551Z AUTO 24004KT 10SM CLR 23/M08 A2999 RMK AO2 SLP080 T02331078 10356 20228 51011 $
KIGM 200451Z AUTO 20006KT 10SM CLR 24/M08 A2999 RMK AO2 SLP082 T02391078 $
KIGM 200351Z AUTO 34003KT 10SM CLR 29/M06 A2997 RMK AO2 SLPNO T02941061 $
KIGM 200251Z AUTO 35008KT 10SM CLR 31/M06 A2996 RMK AO2 SLP069 T03111056 53001 $
KIGM 200151Z AUTO 35007KT 10SM CLR 34/M05 A2995 RMK AO2 SLP066 T03441050 $
KIGM 200051Z AUTO 21010G16KT 10SM CLR 35/M04 A2994 RMK AO2 SLP067 T03501039 $